Terminal Aerodrome Forecast
Issued by NWS

Home | Current Version | Previous Version | Text Only | Print | Product List | Glossary On
Versions: 1 2 3 4 5 6 7 8 9 10 11 12 13 14 15 16
000
FTUS41 KBTV 280538
TAFMPV
TAF
KMPV 280538Z 2806/2906 00000KT P6SM BKN045
      TEMPO 2806/2810 3SM BR BKN010
     FM281400 32005KT P6SM SCT140
     FM290100 VRB04KT P6SM SCT250
     FM290400 15004KT 4SM BR OVC250
     FM290500 14004KT 1 1/2SM BR OVC250=

USA.gov is the U.S. government's official web portal to all federal, state and local government web resources and services.